Overview Statistics Trail Chart Weather Telemetry Raw packets
 

This is the latest recevied weather packets stored in our database for station/object W5GMO. If no packets are shown the sender has not sent any weather packets the latest 10 day(s).

<< 53 54 55 56 57 58 59 >>
Time Temp. Humidity Pressure Rain* Wind** Luminosity Snow
1788276764 32.22° C 1% 1017 hPa 0 mm - 707 W/m² -
1788276464 32.78° C 1% 1017.2 hPa 0 mm - 372 W/m² -
1788276163 31.67° C 1% 1017.1 hPa 0 mm - 360 W/m² -
1788275859 32.22° C 1% 1017.3 hPa 0 mm - 365 W/m² -
1788275559 31.67° C 1% 1017.1 hPa 0 mm - 362 W/m² -
1788275258 31.67° C 1% 1017.2 hPa 0 mm - 326 W/m² -
1788274956 31.67° C 1% 1017.4 hPa 0 mm - 351 W/m² -
1788274654 31.67° C 1% 1017.1 hPa 0 mm - 321 W/m² -
1788274354 31.67° C 1% 1016.9 hPa 0 mm - 418 W/m² -
1788274049 31.67° C 1% 1017.1 hPa 0 mm - 408 W/m² -
1788273744 31.67° C 1% 1017.1 hPa 0 mm - 424 W/m² -
1788273440 31.67° C 1% 1017.3 hPa 0 mm - 677 W/m² -
1788273137 31.11° C 1% 1017.2 hPa 0 mm - 614 W/m² -
1788272833 31.11° C 1% 1017.2 hPa 0 mm - 173 W/m² -
1788272532 31.11° C 1% 1017.2 hPa 0 mm - 243 W/m² -
1788272228 30.56° C 1% 1017.1 hPa 0 mm - 492 W/m² -
1788271926 30.56° C 1% 1017.2 hPa 0 mm - 329 W/m² -
1788271625 30.56° C 1% 1017.2 hPa 0 mm - 272 W/m² -
1788271325 31.67° C 1% 1017.3 hPa 0 mm - 291 W/m² -
1788271020 30.56° C 1% 1017.1 hPa 0 mm - 321 W/m² -
1788270720 30.56° C 1% 1017.2 hPa 0 mm - 280 W/m² -
1788270416 30.56° C 1% 1017.2 hPa 0 mm - 301 W/m² -
1788270111 30.56° C 1% 1017.2 hPa 0 mm - 537 W/m² -
1788269824 30.56° C 1% 1017.2 hPa 0 mm - 415 W/m² -
1788269509 30° C 1% 1017.3 hPa 0 mm - 419 W/m² -

* Rain latest hour (hover to see other rain measurements)
** Current wind speed in m/s (hover to see current wind gust speed)